Saturday, December 15, 2018, 1:26 PM EST
Back to Local

KHYA, Hyannis Barnstable Boardmn

Location: West Yarmouth, MA, United States Lat: 41.667
Local Time: 1:26 PM EST (18:26 GMT) Lon: -70.267
Time Zone: US/Eastern Elev: 52 ft

Show me the last for .
Show Decoded

2018-12-15 12:56 METAR KHYA 151756Z 00000KT 5SM BR OVC035 11/09 A3012 RMK AO2 SLP199 60002
                 T01060094 10106 20078 56029 =
2018-12-15 11:56 METAR KHYA 151656Z 00000KT 5SM BR FEW029 BKN044 OVC055 11/09 A3013 RMK AO2 RAE10
                 SLP204 P0000 T01060094 =
2018-12-15 11:44 METAR KHYA 151644Z 19003KT 2SM BR FEW029 BKN042 OVC048 10/09 A3014 RMK AO2 RAE10
                 P0000 T01000089 =
2018-12-15 11:16 METAR KHYA 151616Z 33004KT 2SM BR SCT012 OVC028 10/09 A3016 RMK AO2 RAE10 P0000
                 T01000089 =
2018-12-15 10:56 METAR KHYA 151556Z 32005KT 1 1/2SM -RA BR OVC025 10/08 A3017 RMK AO2 SLP217
                 P0002 T01000083 =
2018-12-15 09:56 METAR KHYA 151456Z 00000KT 2 1/2SM -RA BR OVC022 09/08 A3020 RMK AO2 RAB36
                 SLP229 P0000 60000 T00940083 51010 =
2018-12-15 08:56 METAR KHYA 151356Z 00000KT 3SM BR OVC024 08/07 A3020 RMK AO2 SLP228 T00830072 =
2018-12-15 08:43 METAR KHYA 151343Z 00000KT 4SM BR OVC024 09/08 A3020 RMK AO2 T00890078 =
2018-12-15 08:15 METAR KHYA 151315Z 00000KT 2SM BR FEW002 OVC027 08/07 A3019 RMK AO2 T00830072 =
2018-12-15 07:56 METAR KHYA 151256Z 00000KT 1/2SM FG BKN002 OVC028 08/08 A3019 RMK AO2 SLP224
                 T00830078 =
2018-12-15 07:43 METAR KHYA 151243Z 24005KT 1/4SM FG OVC001 08/07 A3018 RMK AO2 T00780072 =
2018-12-15 07:13 METAR KHYA 151213Z 21007KT 3/4SM BR OVC002 08/07 A3017 RMK AO2 T00830072 =
2018-12-15 07:03 METAR KHYA 151203Z 22009KT 1 1/4SM BR OVC002 08/07 A3017 RMK AO2 T00830072 =
2018-12-15 06:56 METAR KHYA 151156Z 22006KT 1/2SM FG BKN002 OVC038 08/07 A3017 RMK AO2 SLP219
                 60001 70001 T00830072 10083 20072 55004 =
2018-12-15 06:53 METAR KHYA 151153Z 22006KT 1/2SM FG BKN002 BKN030 OVC038 08/07 A3017 RMK AO2 =
2018-12-15 06:44 METAR KHYA 151144Z 22008KT 6SM BR SCT002 OVC036 08/07 A3017 RMK AO2 T00830072 =
2018-12-15 05:56 METAR KHYA 151056Z 21007KT 10SM OVC037 08/07 A3017 RMK AO2 SLP216 T00780072 =
2018-12-15 05:06 METAR KHYA 151006Z AUTO 23008KT 9SM SCT002 BKN030 OVC036 08/07 A3018 RMK AO2
                 T00830072 =
2018-12-15 04:56 METAR KHYA 150956Z AUTO 20008KT 6SM BR BKN002 BKN038 OVC075 08/07 A3017 RMK AO2
                 RAE24 SLP217 P0001 T00830072 =
2018-12-15 04:17 METAR KHYA 150917Z AUTO 21008KT 3SM -RA BR BKN002 BKN040 OVC065 08/07 A3018 RMK
                 AO2 P0000 T00780067 =
2018-12-15 03:56 METAR KHYA 150856Z AUTO 22008KT 1 1/2SM -RA BR BKN001 BKN011 OVC060 07/07 A3019
                 RMK AO2 SLP223 P0000 60000 T00720067 58006 =
2018-12-15 03:54 METAR KHYA 150854Z AUTO 22008KT 1 3/4SM -RA BR BKN001 BKN022 OVC060 07/07 A3019
                 RMK AO2 P0000 =
2018-12-15 03:34 METAR KHYA 150834Z AUTO 21008KT 1 1/4SM -RA BR FEW002 BKN029 OVC055 08/07 A3019
                 RMK AO2 P0000 T00780067 =
2018-12-15 03:29 METAR KHYA 150829Z AUTO 21009KT 2 1/2SM -RA BR FEW002 BKN041 OVC055 08/07 A3019
                 RMK AO2 P0000 T00780067 =
2018-12-15 03:21 METAR KHYA 150821Z AUTO 20008KT 3SM -RA BR SCT002 BKN026 OVC050 08/07 A3019 RMK
                 AO2 P0000 T00780072 =
2018-12-15 03:17 METAR KHYA 150817Z AUTO 21007KT 2 1/2SM -RA BR BKN002 BKN024 OVC055 08/07 A3020
                 RMK AO2 P0000 T00780067 =
2018-12-15 03:10 METAR KHYA 150810Z AUTO 21008KT 1 3/4SM -RA BR BKN002 BKN014 OVC050 08/07 A3020
                 RMK AO2 P0000 T00780067 =
2018-12-15 03:03 METAR KHYA 150803Z AUTO 22008KT 2SM -RA BR BKN002 OVC017 08/07 A3020 RMK AO2
                 P0000 T00780067 =
2018-12-15 02:56 METAR KHYA 150756Z AUTO 22008KT 3SM -RA BR BKN002 OVC023 08/07 A3021 RMK AO2
                 RAB16 SLP229 P0000 T00780067 =
2018-12-15 02:21 METAR KHYA 150721Z AUTO 22009KT 6SM -RA BR BKN003 BKN075 OVC095 07/06 A3021 RMK
                 AO2 RAB16 CIG 002V017 P0000 T00720061 =
2018-12-15 02:09 METAR KHYA 150709Z AUTO 22010KT 7SM SCT003 OVC095 07/06 A3021 RMK AO2 T00720061
                 =
2018-12-15 01:56 METAR KHYA 150656Z AUTO 21007KT 8SM FEW075 OVC095 08/07 A3021 RMK AO2 RAE46
                 SLP229 P0000 T00780067 =
2018-12-15 01:30 METAR KHYA 150630Z AUTO 22008KT 6SM -RA BR FEW002 BKN070 OVC100 07/07 A3021 RMK
                 AO2 P0000 T00720067 =
2018-12-15 01:17 METAR KHYA 150617Z AUTO 22009KT 3SM -RA BR SCT003 BKN007 OVC070 07/07 A3021 RMK
                 AO2 P0000 T00720067 =
2018-12-15 01:10 METAR KHYA 150610Z AUTO 22008KT 1 1/4SM -RA BR SCT003 OVC007 07/06 A3021 RMK AO2
                 P0000 T00720061 =
2018-12-15 00:56 METAR KHYA 150556Z AUTO 22010KT 1/2SM -RA FG VV002 07/06 A3021 RMK AO2 RAB31
                 SLP232 P0000 60000 T00720061 10072 20017 56015 =
2018-12-15 00:51 METAR KHYA 150551Z AUTO 21010KT 1/2SM -RA FG VV002 07/06 A3022 RMK AO2 RAB31
                 P0000 =
2018-12-15 00:35 METAR KHYA 150535Z AUTO 21007KT 1/4SM -RA FG VV002 07/06 A3022 RMK AO2 RAB31
                 P0000 T00720061 =
2018-12-14 23:56 METAR KHYA 150456Z AUTO 20007KT 1/2SM FG VV002 07/06 A3023 RMK AO2 SLP239
                 T00720061 400721061 =
2018-12-14 23:48 METAR KHYA 150448Z AUTO 20006KT 1/2SM FG VV002 07/06 A3024 RMK AO2 T00670056 =
2018-12-14 23:35 METAR KHYA 150435Z AUTO 21007KT 1 3/4SM BR OVC003 07/05 A3025 RMK AO2 T00670050
                 =
2018-12-14 23:29 METAR KHYA 150429Z AUTO 20006KT 4SM BR OVC003 07/05 A3025 RMK AO2 CIG 002V005
                 T00670050 =
2018-12-14 22:56 METAR KHYA 150356Z AUTO 19003KT 7SM OVC006 06/04 A3026 RMK AO2 SLP247 T00560039
                 =
2018-12-14 22:30 METAR KHYA 150330Z AUTO 19003KT 7SM OVC008 06/04 A3026 RMK AO2 CIG 005V010
                 T00560039 =
2018-12-14 21:56 METAR KHYA 150256Z 17003KT 7SM OVC011 05/03 A3027 RMK AO2 SLP252 T00500033 58028
                 =
2018-12-14 20:56 METAR KHYA 150156Z 00000KT 10SM OVC011 02/01 A3030 RMK AO2 SLP261 T00220011 =
2018-12-14 20:39 METAR KHYA 150139Z 00000KT 10SM BKN011 02/01 A3031 RMK AO2 T00220006 =
2018-12-14 19:56 METAR KHYA 150056Z 00000KT 7SM CLR 02/01 A3033 RMK AO2 SLP273 T00220006 =
2018-12-14 19:42 METAR KHYA 150042Z 00000KT 5SM BR BKN014 03/01 A3034 RMK AO2 T00280011 =
2018-12-14 19:35 METAR KHYA 150035Z 00000KT 2SM BR SCT011 03/01 A3034 RMK AO2 T00280011 =
2018-12-14 18:56 METAR KHYA 142356Z 00000KT 9SM OVC014 03/01 A3035 RMK AO2 SLP280 T00330011 10067
                 20017 58015 =
2018-12-14 18:09 METAR KHYA 142309Z 00000KT 8SM OVC013 03/01 A3038 RMK AO2 T00280011 =
2018-12-14 17:56 METAR KHYA 142256Z 00000KT 7SM BKN018 02/01 A3039 RMK AO2 SLP292 T00220006 =
2018-12-14 16:56 METAR KHYA 142156Z 00000KT 8SM CLR 02/01 A3039 RMK AO2 SLP293 T00220011 =
2018-12-14 15:56 METAR KHYA 142056Z 00000KT 10SM CLR 06/03 A3040 RMK AO2 SLP296 T00560033 56014 =
2018-12-14 14:56 METAR KHYA 141956Z 15004KT 10SM CLR 07/03 A3040 RMK AO2 SLP296 T00670028 =
2018-12-14 13:56 METAR KHYA 141856Z 14005KT 10SM CLR 07/02 A3041 RMK AO2 SLP298 T00670022 =

Support USWX by starting your Amazon purchase here.